createdAt,value
2018-04-14T00:01:59.013Z,14.90
2018-04-14T00:04:26.486Z,12.00
2018-04-14T00:06:53.942Z,17.80
2018-04-14T00:09:21.407Z,15.90
2018-04-14T00:11:48.882Z,22.73
2018-04-14T00:14:16.376Z,41.40
2018-04-14T00:16:43.886Z,17.70
2018-04-14T00:19:11.391Z,18.43
2018-04-14T00:21:38.873Z,12.23
2018-04-14T00:24:06.385Z,17.07
2018-04-14T00:26:33.871Z,14.97
2018-04-14T00:29:01.409Z,13.40
2018-04-14T00:31:28.903Z,16.80
2018-04-14T00:33:56.393Z,12.93
2018-04-14T00:36:23.911Z,14.90
2018-04-14T00:38:51.432Z,16.50
2018-04-14T00:41:18.937Z,15.20
2018-04-14T00:43:46.441Z,15.23
2018-04-14T00:46:13.944Z,18.50
2018-04-14T00:48:41.410Z,19.00
2018-04-14T00:51:08.902Z,21.60
2018-04-14T00:53:47.389Z,19.97
2018-04-14T00:56:14.878Z,16.67
2018-04-14T00:58:42.351Z,18.13
2018-04-14T01:01:09.851Z,19.93
2018-04-14T01:03:37.363Z,15.37
2018-04-14T01:06:04.859Z,18.43
2018-04-14T01:08:32.388Z,19.50
2018-04-14T01:10:59.887Z,24.77
2018-04-14T01:13:27.367Z,14.27
2018-04-14T01:15:54.872Z,21.40
2018-04-14T01:18:22.381Z,22.43
2018-04-14T01:20:50.023Z,19.00
2018-04-14T01:23:17.542Z,26.53
2018-04-14T01:25:45.133Z,18.10
2018-04-14T01:28:12.638Z,22.67
2018-04-14T01:30:40.207Z,24.37
2018-04-14T01:33:07.696Z,26.80
2018-04-14T01:35:35.171Z,22.17
2018-04-14T01:38:02.667Z,29.80
2018-04-14T01:40:30.141Z,27.43
2018-04-14T01:42:57.623Z,22.97
2018-04-14T01:45:25.100Z,21.30
2018-04-14T01:47:52.589Z,25.33
2018-04-14T01:50:20.121Z,24.60
2018-04-14T01:52:47.666Z,23.13
2018-04-14T01:55:15.164Z,28.90
2018-04-14T01:57:42.672Z,27.70
2018-04-14T02:00:10.168Z,25.87
2018-04-14T02:02:37.666Z,27.70
2018-04-14T02:05:05.178Z,25.30
2018-04-14T02:07:32.655Z,40.47
2018-04-14T02:10:00.140Z,33.03
2018-04-14T02:12:27.620Z,24.37
2018-04-14T02:14:55.244Z,27.83
2018-04-14T02:17:22.707Z,28.00
2018-04-14T02:19:50.175Z,27.33
2018-04-14T02:22:17.665Z,29.27
2018-04-14T02:24:45.124Z,29.27
2018-04-14T02:27:12.575Z,28.40
2018-04-14T02:29:40.089Z,29.83
2018-04-14T02:32:07.692Z,25.87
2018-04-14T02:34:35.239Z,30.70
2018-04-14T02:37:02.738Z,30.37
2018-04-14T02:39:30.192Z,29.50
2018-04-14T02:41:57.697Z,29.10
2018-04-14T02:44:25.194Z,27.57
2018-04-14T02:46:52.728Z,24.40
2018-04-14T02:49:20.272Z,27.70
2018-04-14T02:51:47.751Z,33.73
2018-04-14T02:54:15.304Z,31.93
2018-04-14T02:56:42.860Z,31.67
2018-04-14T02:59:10.433Z,29.73
2018-04-14T03:01:38.007Z,30.50
2018-04-14T03:04:05.497Z,31.07
2018-04-14T03:06:32.997Z,30.93
2018-04-14T03:09:00.477Z,35.07
2018-04-14T03:11:27.955Z,31.23
2018-04-14T03:13:55.490Z,30.60
2018-04-14T03:16:22.984Z,34.17
2018-04-14T03:18:50.517Z,34.17
2018-04-14T03:21:17.980Z,34.87
2018-04-14T03:23:45.506Z,37.17
2018-04-14T03:26:13.015Z,34.97
2018-04-14T03:28:40.498Z,35.00
2018-04-14T03:31:08.047Z,37.13
2018-04-14T03:33:35.559Z,37.43
2018-04-14T03:36:03.071Z,36.37
2018-04-14T03:38:30.527Z,35.40
2018-04-14T03:40:57.985Z,33.97
2018-04-14T03:43:25.499Z,38.17
2018-04-14T03:45:52.989Z,41.53
2018-04-14T03:48:20.449Z,44.00
2018-04-14T03:50:47.958Z,43.03
2018-04-14T03:53:15.449Z,35.10
2018-04-14T03:55:42.964Z,32.27
2018-04-14T03:58:10.466Z,31.90
2018-04-14T04:00:37.987Z,32.37
2018-04-14T04:03:05.489Z,37.10
2018-04-14T04:05:32.977Z,34.70
2018-04-14T04:08:00.447Z,35.17
2018-04-14T04:10:27.976Z,34.73
2018-04-14T04:12:55.477Z,35.03
2018-04-14T04:15:22.949Z,40.50
2018-04-14T04:17:50.428Z,43.10
2018-04-14T04:23:36.494Z,43.87
2018-04-14T04:26:03.963Z,45.30
2018-04-14T04:28:31.454Z,31.17
2018-04-14T04:30:58.948Z,39.73
2018-04-14T04:33:26.412Z,35.07
2018-04-14T04:35:53.868Z,33.30
2018-04-14T04:38:21.393Z,37.30
2018-04-14T04:40:48.896Z,32.37
2018-04-14T04:43:16.356Z,35.60
2018-04-14T04:45:43.869Z,40.17
2018-04-14T04:48:11.337Z,38.90
2018-04-14T04:50:38.833Z,43.47
2018-04-14T04:53:06.372Z,52.87
2018-04-14T04:55:33.847Z,46.47
2018-04-14T04:58:01.377Z,53.00
2018-04-14T05:00:28.880Z,53.50
2018-04-14T05:02:56.348Z,58.63
2018-04-14T05:05:23.903Z,67.23
2018-04-14T05:07:51.420Z,67.40
2018-04-14T05:10:18.916Z,60.37
2018-04-14T05:12:46.375Z,62.93
2018-04-14T05:15:13.876Z,71.97
2018-04-14T05:17:41.368Z,81.10
2018-04-14T05:20:08.955Z,72.00
2018-04-14T05:22:36.510Z,71.70
2018-04-14T05:25:04.000Z,76.60
2018-04-14T05:27:31.472Z,79.37
2018-04-14T05:29:58.968Z,87.43
2018-04-14T05:32:26.496Z,76.00
2018-04-14T05:34:53.961Z,84.93
2018-04-14T05:37:21.458Z,70.10
2018-04-14T05:39:48.988Z,68.20
2018-04-14T05:42:16.485Z,68.63
2018-04-14T05:44:44.004Z,67.47
2018-04-14T05:47:11.475Z,68.00
2018-04-14T05:49:38.923Z,75.77
2018-04-14T05:52:06.391Z,73.23
2018-04-14T05:54:33.847Z,70.97
2018-04-14T05:57:01.335Z,68.40
2018-04-14T05:59:28.787Z,65.40
2018-04-14T06:01:56.240Z,68.30
2018-04-14T06:04:23.705Z,76.87
2018-04-14T06:06:51.202Z,70.50
2018-04-14T06:09:18.681Z,69.27
2018-04-14T06:11:46.151Z,72.83
2018-04-14T06:14:13.737Z,66.47
2018-04-14T06:16:41.216Z,63.17
2018-04-14T06:19:08.669Z,69.77
2018-04-14T06:21:36.158Z,59.17
2018-04-14T06:24:03.689Z,62.83
2018-04-14T06:26:31.177Z,60.30
2018-04-14T06:28:58.739Z,61.60
2018-04-14T06:31:26.235Z,58.53
2018-04-14T06:33:53.758Z,60.77
2018-04-14T06:36:21.246Z,63.67
2018-04-14T06:38:48.737Z,62.87
2018-04-14T06:41:16.187Z,64.70
2018-04-14T06:43:43.717Z,76.33
2018-04-14T06:46:11.207Z,65.93
2018-04-14T06:48:38.735Z,68.00
2018-04-14T06:51:06.224Z,67.10
2018-04-14T06:53:33.710Z,78.30
2018-04-14T06:56:01.171Z,71.87
2018-04-14T06:58:28.664Z,77.43
2018-04-14T07:00:56.192Z,83.60
2018-04-14T07:03:23.648Z,84.53
2018-04-14T07:05:51.168Z,83.40
2018-04-14T07:08:18.627Z,84.93
2018-04-14T07:10:46.133Z,88.10
2018-04-14T07:13:13.688Z,84.57
2018-04-14T07:15:41.154Z,85.80
2018-04-14T07:18:08.670Z,85.27
2018-04-14T07:20:36.161Z,83.80
2018-04-14T07:23:03.638Z,85.00
2018-04-14T07:25:31.184Z,86.30
2018-04-14T07:27:58.682Z,97.27
2018-04-14T07:30:26.238Z,82.97
2018-04-14T07:32:53.753Z,89.77
2018-04-14T07:35:21.266Z,83.23
2018-04-14T07:37:48.768Z,93.70
2018-04-14T07:40:16.812Z,92.37
2018-04-14T07:42:44.278Z,91.10
2018-04-14T07:45:11.778Z,91.87
2018-04-14T07:47:39.347Z,86.73
2018-04-14T07:50:06.831Z,95.80
2018-04-14T07:52:34.362Z,81.73
2018-04-14T07:55:01.941Z,94.50
2018-04-14T07:57:29.407Z,104.30
2018-04-14T07:59:56.905Z,89.47
2018-04-14T08:02:24.401Z,99.40
2018-04-14T08:04:51.883Z,110.57
2018-04-14T08:07:19.358Z,93.30
2018-04-14T08:09:46.820Z,98.43
2018-04-14T08:12:14.309Z,93.27
2018-04-14T08:14:41.828Z,100.90
2018-04-14T08:17:09.361Z,92.53
2018-04-14T08:19:36.847Z,96.17
2018-04-14T08:22:04.329Z,96.63
2018-04-14T08:24:31.910Z,105.43
2018-04-14T08:26:59.421Z,109.90
2018-04-14T08:29:26.926Z,103.80
2018-04-14T08:31:54.413Z,91.67
2018-04-14T08:34:21.928Z,112.53
2018-04-14T08:36:49.488Z,102.40
2018-04-14T08:39:17.075Z,106.43
2018-04-14T08:41:44.577Z,88.03
2018-04-14T08:44:12.190Z,96.03
2018-04-14T08:46:39.687Z,90.70
2018-04-14T08:49:07.181Z,88.40
2018-04-14T08:51:34.695Z,92.90
2018-04-14T08:54:02.196Z,86.40
2018-04-14T08:56:30.636Z,91.57
2018-04-14T08:58:58.149Z,83.80
2018-04-14T09:01:25.619Z,80.37
2018-04-14T09:03:53.110Z,79.40
2018-04-14T09:06:20.626Z,83.90
2018-04-14T09:08:48.093Z,71.83
2018-04-14T09:11:15.583Z,90.40
2018-04-14T09:13:43.072Z,73.33
2018-04-14T09:16:10.682Z,78.87
2018-04-14T09:18:38.335Z,72.47
2018-04-14T09:21:05.868Z,71.83
2018-04-14T09:23:33.337Z,76.03
2018-04-14T09:26:00.866Z,62.80
2018-04-14T09:28:28.330Z,70.47
2018-04-14T09:30:55.900Z,70.30
2018-04-14T09:33:23.422Z,62.70
2018-04-14T09:35:50.932Z,64.90
2018-04-14T09:38:18.436Z,60.00
2018-04-14T09:40:45.937Z,63.53
2018-04-14T09:43:13.438Z,58.53
2018-04-14T09:45:40.947Z,61.87
2018-04-14T09:48:08.481Z,57.60
2018-04-14T09:50:35.947Z,48.73
2018-04-14T09:53:03.400Z,49.50
2018-04-14T09:55:30.995Z,54.00
2018-04-14T09:57:58.480Z,49.50
2018-04-14T10:00:27.826Z,47.80
2018-04-14T10:03:00.410Z,47.27
2018-04-14T10:05:27.827Z,44.40
2018-04-14T10:07:55.308Z,55.43
2018-04-14T10:10:22.859Z,42.33
2018-04-14T10:12:50.283Z,39.53
2018-04-14T10:15:17.751Z,43.77
2018-04-14T10:17:45.257Z,40.80
2018-04-14T10:20:12.799Z,48.73
2018-04-14T10:22:40.312Z,40.80
2018-04-14T10:25:07.823Z,44.70
2018-04-14T10:27:35.366Z,42.30
2018-04-14T10:30:02.834Z,41.27
2018-04-14T10:32:30.354Z,41.97
2018-04-14T10:34:57.823Z,44.70
2018-04-14T10:37:25.322Z,40.20
2018-04-14T10:39:52.835Z,43.73
2018-04-14T10:42:20.303Z,38.47
2018-04-14T10:44:47.786Z,41.10
2018-04-14T10:47:15.290Z,39.63
2018-04-14T10:49:42.779Z,37.67
2018-04-14T10:52:10.317Z,41.27
2018-04-14T10:54:37.859Z,37.50
2018-04-14T10:57:05.371Z,39.13
2018-04-14T10:59:32.927Z,54.80
2018-04-14T11:02:00.432Z,38.43
2018-04-14T11:04:27.901Z,48.10
2018-04-14T11:06:55.488Z,53.70
2018-04-14T11:09:22.990Z,37.63
2018-04-14T11:11:50.572Z,42.50
2018-04-14T11:14:18.036Z,42.03
2018-04-14T11:16:45.632Z,39.20
2018-04-14T11:19:13.117Z,42.50
2018-04-14T11:21:40.607Z,40.13
2018-04-14T11:24:08.116Z,38.17
2018-04-14T11:26:35.757Z,49.03
2018-04-14T11:29:03.226Z,36.93
2018-04-14T11:31:30.715Z,35.10
2018-04-14T11:33:58.324Z,38.30
2018-04-14T11:36:25.850Z,36.50
2018-04-14T11:38:53.325Z,36.97
2018-04-14T11:41:20.821Z,38.20
2018-04-14T11:43:48.305Z,37.27
2018-04-14T11:46:15.781Z,38.77
2018-04-14T11:48:43.313Z,34.27
2018-04-14T11:51:10.805Z,36.53
2018-04-14T11:53:38.315Z,42.10
2018-04-14T11:56:05.842Z,36.33
2018-04-14T11:58:33.356Z,36.00
2018-04-14T12:01:00.864Z,32.10
2018-04-14T12:03:28.421Z,34.50
2018-04-14T12:05:55.871Z,35.60
2018-04-14T12:08:23.445Z,37.83
2018-04-14T12:10:50.982Z,37.43
2018-04-14T12:13:18.472Z,39.40
2018-04-14T12:15:45.972Z,38.13
2018-04-14T12:18:13.447Z,44.17
2018-04-14T12:20:40.908Z,52.80
2018-04-14T12:23:08.465Z,51.37
2018-04-14T12:25:35.962Z,74.03
2018-04-14T12:28:03.418Z,67.53
2018-04-14T12:30:30.908Z,69.80
2018-04-14T12:32:58.396Z,69.57
2018-04-14T12:35:25.899Z,77.40
2018-04-14T12:37:59.884Z,66.90
2018-04-14T12:40:27.374Z,74.97
2018-04-14T12:42:54.864Z,64.17
2018-04-14T12:45:22.375Z,64.50
2018-04-14T12:47:49.875Z,66.37
2018-04-14T12:50:17.376Z,65.00
2018-04-14T12:52:44.958Z,62.10
2018-04-14T12:55:12.489Z,65.13
2018-04-14T12:57:39.999Z,61.47
2018-04-14T13:00:07.499Z,62.20
2018-04-14T13:02:35.004Z,64.97
2018-04-14T13:05:02.528Z,68.20
2018-04-14T13:07:30.097Z,60.63
2018-04-14T13:09:57.588Z,57.63
2018-04-14T13:12:25.056Z,59.10
2018-04-14T13:14:52.598Z,51.93
2018-04-14T13:17:20.064Z,57.80
2018-04-14T13:19:47.552Z,53.33
2018-04-14T13:22:15.075Z,58.43
2018-04-14T13:24:42.613Z,60.73
2018-04-14T13:27:10.104Z,60.80
2018-04-14T13:29:37.613Z,56.07
2018-04-14T13:32:05.063Z,69.00
2018-04-14T13:34:32.540Z,53.87
2018-04-14T13:37:00.056Z,62.13
2018-04-14T13:39:27.562Z,52.77
2018-04-14T13:41:55.061Z,50.73
2018-04-14T13:44:22.524Z,72.10
2018-04-14T13:46:49.976Z,54.90
2018-04-14T13:49:17.444Z,54.50
2018-04-14T13:51:45.018Z,54.47
2018-04-14T13:54:12.510Z,46.87
2018-04-14T13:56:40.013Z,47.47
2018-04-14T13:59:07.492Z,49.37
2018-04-14T14:01:34.984Z,47.47
2018-04-14T14:04:02.514Z,48.03
2018-04-14T14:06:29.980Z,45.83
2018-04-14T14:08:57.444Z,47.40
2018-04-14T14:11:24.950Z,47.53
2018-04-14T14:13:52.446Z,48.97
2018-04-14T14:16:19.920Z,48.60
2018-04-14T14:18:47.441Z,53.40
2018-04-14T14:21:14.937Z,50.00
2018-04-14T14:23:42.438Z,46.57
2018-04-14T14:26:09.919Z,45.73
2018-04-14T14:28:37.421Z,55.00
2018-04-14T14:31:04.914Z,48.93
2018-04-14T14:33:32.411Z,42.73
2018-04-14T14:35:59.882Z,45.90
2018-04-14T14:38:27.389Z,45.30
2018-04-14T14:40:54.914Z,42.93
2018-04-14T14:43:22.540Z,40.20
2018-04-14T14:45:50.091Z,48.53
2018-04-14T14:48:17.567Z,43.40
2018-04-14T14:50:45.044Z,46.30
2018-04-14T14:53:12.517Z,39.93
2018-04-14T14:55:39.988Z,48.20
2018-04-14T14:58:07.508Z,46.40
2018-04-14T15:00:35.074Z,45.93
2018-04-14T15:03:02.573Z,56.47
2018-04-14T15:05:30.085Z,48.90
2018-04-14T15:07:57.555Z,51.97
2018-04-14T15:10:25.041Z,50.00
2018-04-14T15:12:52.540Z,55.47
2018-04-14T15:15:20.061Z,52.63
2018-04-14T15:17:47.587Z,54.20
2018-04-14T15:20:15.074Z,51.57
2018-04-14T15:22:42.572Z,56.67
2018-04-14T15:25:10.064Z,51.07
2018-04-14T15:27:37.553Z,49.00
2018-04-14T15:30:05.071Z,41.93
2018-04-14T15:32:32.643Z,49.43
2018-04-14T15:35:00.221Z,47.60
2018-04-14T15:37:27.703Z,44.57
2018-04-14T15:39:55.154Z,43.50
2018-04-14T15:42:22.679Z,44.00
2018-04-14T15:44:50.161Z,46.80
2018-04-14T15:47:17.670Z,50.10
2018-04-14T15:49:45.203Z,50.13
2018-04-14T15:52:12.674Z,41.10
2018-04-14T15:54:40.146Z,45.90
2018-04-14T15:57:07.667Z,45.37
2018-04-14T15:59:35.268Z,52.17
2018-04-14T16:02:02.788Z,38.10
2018-04-14T16:04:30.333Z,43.10
2018-04-14T16:06:57.910Z,41.73
2018-04-14T16:09:25.596Z,38.43
2018-04-14T16:11:53.039Z,40.10
2018-04-14T16:14:20.565Z,43.17
2018-04-14T16:16:48.089Z,43.43
2018-04-14T16:19:15.575Z,43.33
2018-04-14T16:21:43.254Z,44.83
2018-04-14T16:24:10.756Z,50.17
2018-04-14T16:26:38.289Z,49.73
2018-04-14T16:29:05.837Z,51.00
2018-04-14T16:31:33.407Z,48.20
2018-04-14T16:34:00.964Z,46.23
2018-04-14T16:36:28.495Z,52.50
2018-04-14T16:38:55.998Z,58.27
2018-04-14T16:41:23.484Z,48.80
2018-04-14T16:43:50.980Z,45.97
2018-04-14T16:46:18.453Z,44.63
2018-04-14T16:48:46.244Z,54.03
2018-04-14T16:51:14.712Z,50.80
2018-04-14T16:53:42.456Z,46.07
2018-04-14T16:56:10.650Z,45.90
2018-04-14T16:58:38.533Z,47.00
2018-04-14T17:01:06.757Z,45.83
2018-04-14T17:03:34.251Z,53.07
2018-04-14T17:06:02.579Z,48.57
2018-04-14T17:08:30.085Z,51.23
2018-04-14T17:10:57.818Z,49.80
2018-04-14T17:13:25.991Z,56.47
2018-04-14T17:15:53.961Z,54.07
2018-04-14T17:18:21.705Z,82.00
2018-04-14T17:20:49.387Z,60.80
2018-04-14T17:23:17.797Z,53.90
2018-04-14T17:25:45.516Z,51.00
2018-04-14T17:28:13.000Z,52.20
2018-04-14T17:30:40.481Z,48.33
2018-04-14T17:33:07.989Z,50.47
2018-04-14T17:35:35.484Z,59.97
2018-04-14T17:38:02.995Z,52.30
2018-04-14T17:40:30.468Z,58.73
2018-04-14T17:42:58.023Z,51.63
2018-04-14T17:45:25.526Z,53.77
2018-04-14T17:47:52.990Z,65.53
2018-04-14T17:50:20.480Z,54.90
2018-04-14T17:52:47.959Z,67.27
2018-04-14T17:55:15.433Z,61.23
2018-04-14T17:57:42.977Z,58.20
2018-04-14T18:00:10.519Z,58.90
2018-04-14T18:02:38.010Z,63.50
2018-04-14T18:05:05.530Z,67.27
2018-04-14T18:07:33.187Z,58.40
2018-04-14T18:10:00.682Z,68.73
2018-04-14T18:12:28.160Z,57.57
2018-04-14T18:14:55.640Z,69.37
2018-04-14T18:17:23.196Z,57.50
2018-04-14T18:19:50.659Z,70.87
2018-04-14T18:22:18.191Z,64.83
2018-04-14T18:24:45.731Z,71.00
2018-04-14T18:27:13.213Z,78.50
2018-04-14T18:29:40.673Z,76.10
2018-04-14T18:32:08.148Z,88.87
2018-04-14T18:34:35.606Z,81.43
2018-04-14T18:37:03.082Z,87.87
2018-04-14T18:39:30.558Z,78.90
2018-04-14T18:41:58.136Z,87.33
2018-04-14T18:44:25.710Z,88.27
2018-04-14T18:46:53.221Z,92.23
2018-04-14T18:49:20.810Z,97.10
2018-04-14T18:51:48.280Z,84.17
2018-04-14T18:54:15.900Z,85.90
2018-04-14T18:56:43.398Z,97.87
2018-04-14T18:59:10.915Z,85.00
2018-04-14T19:01:38.442Z,76.97
2018-04-14T19:04:05.953Z,95.30
2018-04-14T19:06:33.541Z,81.43
2018-04-14T19:09:01.067Z,94.80
2018-04-14T19:11:28.659Z,102.23
2018-04-14T19:13:56.176Z,91.17
2018-04-14T19:16:23.706Z,82.60
2018-04-14T19:18:51.193Z,90.90
2018-04-14T19:21:18.671Z,90.63
2018-04-14T19:23:46.202Z,83.40
2018-04-14T19:26:13.753Z,94.33
2018-04-14T19:28:41.255Z,95.70
2018-04-14T19:31:08.733Z,96.77
2018-04-14T19:33:36.209Z,95.33
2018-04-14T19:36:03.715Z,91.07
2018-04-14T19:38:31.232Z,93.60
2018-04-14T19:40:58.805Z,103.17
2018-04-14T19:43:26.319Z,88.20
2018-04-14T19:45:53.839Z,88.50
2018-04-14T19:48:21.459Z,106.43
2018-04-14T19:50:48.971Z,96.83
2018-04-14T19:53:16.519Z,102.77
2018-04-14T19:55:44.018Z,100.93
2018-04-14T19:58:11.480Z,102.93
2018-04-14T20:00:39.060Z,104.30
2018-04-14T20:03:06.554Z,99.10
2018-04-14T20:05:34.026Z,102.30
2018-04-14T20:08:01.575Z,105.57
2018-04-14T20:10:29.168Z,86.70
2018-04-14T20:12:56.635Z,108.83
2018-04-14T20:15:24.097Z,90.03
2018-04-14T20:17:51.577Z,103.87
2018-04-14T20:20:19.067Z,97.53
2018-04-14T20:22:46.668Z,101.00
2018-04-14T20:25:14.203Z,104.63
2018-04-14T20:27:41.718Z,92.33
2018-04-14T20:30:09.260Z,91.80
2018-04-14T20:32:36.761Z,96.33
2018-04-14T20:35:04.284Z,99.53
2018-04-14T20:37:31.812Z,97.70
2018-04-14T20:39:59.268Z,123.27
2018-04-14T20:42:26.761Z,94.77
2018-04-14T20:44:54.301Z,103.00
2018-04-14T20:47:21.802Z,101.80
2018-04-14T20:49:49.290Z,95.30
2018-04-14T20:52:16.766Z,98.40
2018-04-14T20:54:44.296Z,102.43
2018-04-14T20:57:11.881Z,101.33
2018-04-14T20:59:39.359Z,112.07
2018-04-14T21:02:06.861Z,116.10
2018-04-14T21:04:34.403Z,105.93
2018-04-14T21:07:01.950Z,96.30
2018-04-14T21:09:29.476Z,114.10
2018-04-14T21:11:56.941Z,105.43
2018-04-14T21:14:24.491Z,121.40
2018-04-14T21:16:51.976Z,105.97
2018-04-14T21:19:19.448Z,107.47
2018-04-14T21:21:46.953Z,113.87
2018-04-14T21:24:14.489Z,110.30
2018-04-14T21:26:42.043Z,116.93
2018-04-14T21:29:09.644Z,136.87
2018-04-14T21:31:37.133Z,141.93
2018-04-14T21:34:04.657Z,108.80
2018-04-14T21:36:32.143Z,139.60
2018-04-14T21:38:59.632Z,123.37
2018-04-14T21:41:27.136Z,117.57
2018-04-14T21:43:54.660Z,116.10
2018-04-14T21:46:22.120Z,139.30
2018-04-14T21:48:49.609Z,136.17
2018-04-14T21:51:17.124Z,162.30
2018-04-14T21:53:44.607Z,172.17
2018-04-14T21:56:12.117Z,151.83
2018-04-14T21:58:39.636Z,137.80
2018-04-14T22:01:07.202Z,150.57
2018-04-14T22:03:34.705Z,128.13
2018-04-14T22:06:02.222Z,148.43
2018-04-14T22:08:29.695Z,137.77
2018-04-14T22:10:57.159Z,136.93
2018-04-14T22:13:24.647Z,145.87
2018-04-14T22:15:52.160Z,169.50
2018-04-14T22:18:19.668Z,154.23
2018-04-14T22:20:47.168Z,178.83
2018-04-14T22:23:14.661Z,157.77
2018-04-14T22:25:42.374Z,147.07
2018-04-14T22:28:09.902Z,177.70
2018-04-14T22:30:37.394Z,159.37
2018-04-14T22:33:04.919Z,249.80
2018-04-14T22:35:32.404Z,153.40
2018-04-14T22:37:59.972Z,125.03
2018-04-14T22:40:27.473Z,138.40
2018-04-14T22:42:54.981Z,130.57
2018-04-14T22:45:22.512Z,164.80
2018-04-14T22:47:50.025Z,184.37
2018-04-14T22:50:17.494Z,175.20
2018-04-14T22:52:45.012Z,162.73
2018-04-14T22:55:12.471Z,155.13
2018-04-14T22:57:39.975Z,143.70
2018-04-14T23:00:07.520Z,160.83
2018-04-14T23:02:35.071Z,153.53
2018-04-14T23:05:02.546Z,163.80
2018-04-14T23:07:30.169Z,197.80
2018-04-14T23:09:57.643Z,218.57
2018-04-14T23:12:25.225Z,171.47
2018-04-14T23:14:52.730Z,180.67
2018-04-14T23:17:20.294Z,167.33
2018-04-14T23:19:47.757Z,156.93
2018-04-14T23:22:15.281Z,154.03
2018-04-14T23:24:42.755Z,153.00
2018-04-14T23:27:10.253Z,146.67
2018-04-14T23:29:37.772Z,140.93
2018-04-14T23:32:05.307Z,153.00
2018-04-14T23:34:32.788Z,154.90
2018-04-14T23:37:00.327Z,139.77
2018-04-14T23:39:27.801Z,139.77
2018-04-14T23:41:55.346Z,151.40
2018-04-14T23:44:22.872Z,162.67
2018-04-14T23:46:50.335Z,151.90
2018-04-14T23:49:17.809Z,163.40
2018-04-14T23:51:45.272Z,151.60
2018-04-14T23:54:12.747Z,152.20
2018-04-14T23:56:40.341Z,157.07
2018-04-14T23:59:07.862Z,137.33
